Redwood City, CA (94065)

12:37 AM PDT on September 16, 2014 (GMT -0700)
Lauriedale | Change Station
CLOSE
Current Station
Personal Weather Station
Location: San Mateo, CA
Elevation: 30 ft
Nearby Weather Stations

Elev 30 ft 37.53 °N, 122.29 °W | Updated 12 seconds ago

Clear
Clear
64.8 °F
Feels Like 64.8 °F
N
0.0
Wind Variable Wind from WSW
Gusts 0.0 mph

Today
High -- | Low -- °F
--% Chance of Precip.
Yesterday
High -- | Low -- °F
Precip. -- in
6:51 AM 7:15 PM
Waning Gibbous, 48% visible
Pressure 29.95 in
Visibility 10.0 miles
Clouds Clear
Dew Point 53 °F
Humidity 65%
Rainfall 0.00 in
Snow Depth Not available.
UV 0 out of 12
Pollen 5.40 out of 12
Ozone Good
PM2.5 Good
Flu Activity Not available.
METAR KSQL 160710Z AUTO 32003KT 10SM CLR 18/12 A2995 RMK AO2

More Conditions Fewer Conditions

Pressure 29.95 in
Visibility 10.0 miles
Clouds Clear
Dew Point 53 °F
Humidity 65%
Rainfall 0.00 in
Snow Depth Not available.
UV 0 out of 12
Pollen 5.40 out of 12
Ozone Good
PM2.5 Good
Flu Activity Not available.
METAR KSQL 160710Z AUTO 32003KT 10SM CLR 18/12 A2995 RMK AO2

More Conditions Fewer Conditions

10-Day Weather Forecast

Almanac

Astronomy

Sep. 16, 2014 Rise Set
Actual Time 6:51 AM PDT 7:15 PM PDT
Civil Twilight 6:25 AM PDT 7:41 PM PDT
Nautical Twilight 5:54 AM PDT 8:11 PM PDT
Astronomical Twilight 5:23 AM PDT 8:43 PM PDT
Moon 12:11 AM PDT 2:38 PM PDT
Length of Visible Light 13h 15m
Length of Day
12h 23m
Tomorrow will be 2m 23s shorter.
Waning Gibbous, 48% of the Moon is Illuminated
Today
Waning Gibbous
Sep 24
New
Oct 1
First Quarter
Oct 8
Full
Oct 15
Last Quarter

Today's Extremes

State Highs State Lows

Community

WunderPhotos

Upload Photos

1,753,713 photos uploaded!

Nearby

Air Quality

  Air Quality AQ Index Pollutant
Yesterday Moderate
PM2.5
Yesterday Good
OZONE
Current Good
PM2.5
Current Good
OZONE
Monday Good
PM2.5
Tuesday Good
PM2.5
Wednesday Good
OZONE
Thursday Good
OZONE
Friday Good
OZONE
Saturday Good
OZONE

Snow Depth

Station Depth Elevation
Blue Lakes 0 in 8000 ft
Forestdale Creek 0 in 8029 ft
Echo Peak 0 in 7800 ft
Leavitt Lake 0 in 9400 ft
Rubicon #2 0 in 7500 ft

Earthquake Activity

City Distance Mag. Time & Date
Cobb, California 94 miles 2.7 11:07 AM PDT
2014-09-14
Minimum magnitude displayed is 2.5.

Coastal Water Temperatures

Place Temperature
No Stations Reporting

Nearby Weather Stations